createdAt,value
2023-03-13T00:01:16.012Z,76.00
2023-03-13T00:03:44.044Z,76.50
2023-03-13T00:06:12.377Z,76.80
2023-03-13T00:08:40.842Z,77.20
2023-03-13T00:11:12.916Z,77.40
2023-03-13T00:13:41.184Z,77.70
2023-03-13T00:16:11.440Z,77.90
2023-03-13T00:18:40.992Z,78.30
2023-03-13T00:21:10.429Z,78.40
2023-03-13T00:23:39.497Z,78.50
2023-03-13T00:26:09.745Z,78.80
2023-03-13T00:28:39.562Z,79.10
2023-03-13T00:31:09.817Z,79.50
2023-03-13T00:33:40.895Z,80.00
2023-03-13T00:36:10.726Z,80.30
2023-03-13T00:38:38.846Z,80.70
2023-03-13T00:41:08.534Z,80.70
2023-03-13T00:43:36.686Z,80.90
2023-03-13T00:46:04.882Z,81.00
2023-03-13T00:48:33.576Z,81.40
2023-03-13T00:51:03.793Z,81.40
2023-03-13T00:53:31.831Z,81.60
2023-03-13T00:56:01.145Z,82.00
2023-03-13T00:58:30.884Z,82.50
2023-03-13T01:00:58.977Z,82.90
2023-03-13T01:03:27.426Z,83.20
2023-03-13T01:05:58.973Z,83.60
2023-03-13T01:08:29.718Z,83.80
2023-03-13T01:11:01.423Z,84.20
2023-03-13T01:13:30.413Z,84.80
2023-03-13T01:15:58.463Z,85.20
2023-03-13T01:18:26.501Z,85.30
2023-03-13T01:20:54.622Z,85.50
2023-03-13T01:23:22.630Z,85.90
2023-03-13T01:25:51.951Z,86.10
2023-03-13T01:28:19.913Z,86.60
2023-03-13T01:30:47.963Z,87.30
2023-03-13T01:33:15.942Z,87.00
2023-03-13T01:35:44.439Z,87.30
2023-03-13T01:38:12.466Z,87.60
2023-03-13T01:40:42.092Z,87.80
2023-03-13T01:43:26.789Z,87.80
2023-03-13T01:46:01.560Z,87.90
2023-03-13T01:48:38.799Z,88.40
2023-03-13T01:51:11.210Z,88.80
2023-03-13T01:53:42.493Z,88.90
2023-03-13T01:56:16.089Z,89.30
2023-03-13T01:58:46.305Z,89.70
2023-03-13T02:01:15.371Z,90.00
2023-03-13T02:03:44.611Z,90.10
2023-03-13T02:06:13.041Z,90.30
2023-03-13T02:08:47.088Z,90.40
2023-03-13T02:11:24.538Z,90.60
2023-03-13T02:13:56.764Z,90.80
2023-03-13T02:16:25.210Z,91.20
2023-03-13T02:18:53.221Z,91.40
2023-03-13T02:21:33.130Z,91.60
2023-03-13T02:24:10.863Z,91.70
2023-03-13T02:26:40.237Z,91.90
2023-03-13T02:29:08.280Z,91.90
2023-03-13T02:31:36.325Z,92.00
2023-03-13T02:34:04.964Z,92.20
2023-03-13T02:36:33.043Z,92.40
2023-03-13T02:39:05.533Z,92.80
2023-03-13T02:41:35.446Z,93.20
2023-03-13T02:44:05.927Z,93.50
2023-03-13T02:46:46.300Z,93.70
2023-03-13T02:49:26.394Z,93.80
2023-03-13T02:51:55.975Z,93.90
2023-03-13T02:54:27.881Z,94.00
2023-03-13T02:56:58.680Z,94.10
2023-03-13T02:59:28.119Z,94.40
2023-03-13T03:01:56.393Z,94.40
2023-03-13T03:04:27.103Z,94.40
2023-03-13T03:06:55.112Z,94.40
2023-03-13T03:09:23.932Z,94.60
2023-03-13T03:11:52.106Z,94.70
2023-03-13T03:14:20.097Z,95.00
2023-03-13T03:16:49.421Z,95.20
2023-03-13T03:19:17.436Z,95.40
2023-03-13T03:21:45.514Z,95.50
2023-03-13T03:24:13.553Z,95.80
2023-03-13T03:26:41.598Z,96.10
2023-03-13T03:29:11.062Z,96.20
2023-03-13T03:31:39.187Z,96.40
2023-03-13T03:34:08.597Z,96.60
2023-03-13T03:36:36.698Z,97.10
2023-03-13T03:39:05.315Z,97.40
2023-03-13T03:41:33.359Z,97.60
2023-03-13T03:44:01.302Z,97.80
2023-03-13T03:46:29.293Z,98.00
2023-03-13T03:48:57.313Z,98.00
2023-03-13T03:51:26.652Z,98.30
2023-03-13T03:53:54.770Z,98.30
2023-03-13T03:56:22.767Z,98.50
2023-03-13T03:58:50.741Z,98.70
2023-03-13T04:01:18.703Z,98.90
2023-03-13T04:03:48.389Z,99.30
2023-03-13T04:06:16.581Z,99.60
2023-03-13T04:08:45.921Z,99.70
2023-03-13T04:11:13.897Z,99.90
2023-03-13T04:13:41.862Z,99.90
2023-03-13T04:16:10.544Z,99.90
2023-03-13T04:18:38.604Z,99.90
2023-03-13T04:21:07.663Z,99.90
2023-03-13T04:23:35.660Z,99.90
2023-03-13T04:26:05.241Z,99.90
2023-03-13T04:28:33.193Z,99.90
2023-03-13T04:31:01.418Z,99.90
2023-03-13T04:33:29.448Z,99.90
2023-03-13T04:35:57.482Z,99.90
2023-03-13T04:38:25.556Z,99.90
2023-03-13T04:40:53.518Z,99.90
2023-03-13T04:43:22.854Z,99.90
2023-03-13T04:45:54.613Z,99.90
2023-03-13T04:48:22.861Z,99.90
2023-03-13T04:50:50.879Z,99.90
2023-03-13T04:53:19.353Z,99.90
2023-03-13T04:55:48.624Z,99.90
2023-03-13T04:58:16.549Z,99.90
2023-03-13T05:00:45.892Z,99.90
2023-03-13T05:03:14.271Z,99.90
2023-03-13T05:05:42.254Z,99.90
2023-03-13T05:08:10.908Z,99.90
2023-03-13T05:10:38.904Z,99.90
2023-03-13T05:13:06.917Z,99.90
2023-03-13T05:15:35.096Z,99.90
2023-03-13T05:18:04.640Z,99.90
2023-03-13T05:20:32.664Z,99.90
2023-03-13T05:23:00.652Z,99.90
2023-03-13T05:25:28.698Z,99.90
2023-03-13T05:27:56.688Z,99.90
2023-03-13T05:30:24.885Z,99.90
2023-03-13T05:32:52.933Z,99.90
2023-03-13T05:35:22.467Z,99.90
2023-03-13T05:37:50.566Z,99.90
2023-03-13T05:40:18.777Z,99.90
2023-03-13T05:42:47.186Z,99.90
2023-03-13T05:45:15.236Z,99.90
2023-03-13T05:47:43.233Z,99.90
2023-03-13T05:50:12.187Z,99.90
2023-03-13T05:52:41.614Z,99.90
2023-03-13T05:55:10.225Z,99.90
2023-03-13T05:57:38.231Z,99.90
2023-03-13T06:00:07.382Z,99.90
2023-03-13T06:02:35.476Z,99.90
2023-03-13T06:05:03.548Z,99.90
2023-03-13T06:07:31.591Z,99.90
2023-03-13T06:10:00.954Z,99.90
2023-03-13T06:12:29.051Z,99.90
2023-03-13T06:14:57.042Z,99.90
2023-03-13T06:17:25.624Z,99.90
2023-03-13T06:19:53.650Z,99.90
2023-03-13T06:22:21.621Z,99.90
2023-03-13T06:24:49.742Z,99.90
2023-03-13T06:27:19.117Z,99.90
2023-03-13T06:29:47.315Z,99.90
2023-03-13T06:32:15.540Z,99.90
2023-03-13T06:34:43.577Z,99.90
2023-03-13T06:37:11.580Z,99.90
2023-03-13T06:39:40.036Z,99.90
2023-03-13T06:42:08.849Z,99.90
2023-03-13T06:44:38.511Z,99.80
2023-03-13T06:47:06.856Z,99.60
2023-03-13T06:49:34.938Z,99.20
2023-03-13T06:52:02.919Z,98.80
2023-03-13T06:54:31.333Z,98.20
2023-03-13T06:56:59.280Z,97.40
2023-03-13T06:59:27.396Z,97.30
2023-03-13T07:01:56.751Z,96.70
2023-03-13T07:04:24.925Z,96.40
2023-03-13T07:06:53.250Z,96.30
2023-03-13T07:09:21.376Z,96.70
2023-03-13T07:11:49.482Z,96.50
2023-03-13T07:14:17.954Z,96.40
2023-03-13T07:16:46.686Z,96.10
2023-03-13T07:19:16.849Z,95.70
2023-03-13T07:21:45.155Z,95.40
2023-03-13T07:24:13.356Z,94.80
2023-03-13T07:26:48.515Z,94.40
2023-03-13T07:29:22.770Z,94.70
2023-03-13T07:31:50.959Z,94.50
2023-03-13T07:34:20.596Z,94.50
2023-03-13T07:36:48.593Z,94.80
2023-03-13T07:39:16.715Z,94.80
2023-03-13T07:41:44.718Z,94.80
2023-03-13T07:44:12.814Z,94.70
2023-03-13T07:46:40.783Z,94.60
2023-03-13T07:49:08.841Z,94.70
2023-03-13T07:51:43.898Z,94.60
2023-03-13T07:54:12.482Z,94.90
2023-03-13T07:56:41.077Z,94.50
2023-03-13T07:59:09.541Z,94.50
2023-03-13T08:01:37.745Z,94.20
2023-03-13T08:04:06.214Z,94.20
2023-03-13T08:06:36.697Z,94.00
2023-03-13T08:09:06.784Z,93.70
2023-03-13T08:11:35.101Z,93.40
2023-03-13T08:14:03.089Z,93.00
2023-03-13T08:16:34.360Z,92.80
2023-03-13T08:19:05.094Z,92.40
2023-03-13T08:21:35.109Z,92.20
2023-03-13T08:24:06.811Z,91.90
2023-03-13T08:26:38.076Z,91.70
2023-03-13T08:29:08.736Z,91.70
2023-03-13T08:31:38.711Z,91.30
2023-03-13T08:34:06.696Z,91.30
2023-03-13T08:36:36.137Z,91.30
2023-03-13T08:39:06.106Z,91.00
2023-03-13T08:41:37.159Z,90.80
2023-03-13T08:44:06.207Z,90.90
2023-03-13T08:46:36.230Z,90.10
2023-03-13T08:49:05.906Z,89.70
2023-03-13T08:51:34.341Z,89.30
2023-03-13T08:54:03.479Z,88.90
2023-03-13T08:56:35.172Z,88.00
2023-03-13T08:59:04.831Z,87.60
2023-03-13T09:01:35.167Z,87.90
2023-03-13T09:04:04.780Z,87.40
2023-03-13T09:06:33.474Z,86.40
2023-03-13T09:09:01.535Z,85.80
2023-03-13T09:11:29.625Z,85.30
2023-03-13T09:14:00.233Z,85.10
2023-03-13T09:16:30.459Z,85.40
2023-03-13T09:18:59.534Z,84.80
2023-03-13T09:21:29.536Z,84.50
2023-03-13T09:23:58.128Z,84.10
2023-03-13T09:26:27.578Z,83.90
2023-03-13T09:28:56.100Z,83.90
2023-03-13T09:31:27.347Z,84.00
2023-03-13T09:33:55.887Z,84.10
2023-03-13T09:36:24.795Z,83.80
2023-03-13T09:38:53.874Z,83.50
2023-03-13T09:41:25.764Z,74.40
2023-03-13T09:43:59.963Z,59.60
2023-03-13T09:46:36.350Z,48.20
2023-03-13T09:49:10.122Z,48.70
2023-03-13T09:51:41.190Z,53.00
2023-03-13T09:54:18.160Z,45.90
2023-03-13T09:56:48.953Z,43.70
2023-03-13T09:59:21.351Z,39.90
2023-03-13T10:01:51.538Z,37.50
2023-03-13T10:04:31.621Z,34.70
2023-03-13T10:06:59.701Z,38.20
2023-03-13T10:09:31.540Z,40.80
2023-03-13T10:12:08.627Z,41.20
2023-03-13T10:14:45.244Z,36.80
2023-03-13T10:17:27.332Z,38.40
2023-03-13T10:19:59.122Z,37.40
2023-03-13T10:22:30.164Z,34.60
2023-03-13T10:25:00.878Z,33.60
2023-03-13T10:27:28.879Z,33.50
2023-03-13T10:29:56.882Z,34.90
2023-03-13T10:32:28.140Z,34.90
2023-03-13T10:34:58.389Z,35.00
2023-03-13T10:37:28.730Z,37.30
2023-03-13T10:40:12.473Z,41.60
2023-03-13T10:42:45.240Z,47.50
2023-03-13T10:45:18.696Z,52.60
2023-03-13T10:47:55.799Z,55.00
2023-03-13T10:50:26.337Z,56.10
2023-03-13T10:52:55.442Z,56.20
2023-03-13T10:55:25.486Z,57.40
2023-03-13T10:57:58.807Z,58.00
2023-03-13T11:00:34.495Z,57.70
2023-03-13T11:03:08.016Z,57.60
2023-03-13T11:05:42.580Z,57.50
2023-03-13T11:08:19.641Z,58.50
2023-03-13T11:11:01.141Z,59.00
2023-03-13T11:13:37.938Z,59.20
2023-03-13T11:16:21.472Z,59.10
2023-03-13T11:19:20.123Z,59.70
2023-03-13T11:22:02.039Z,61.50
2023-03-13T11:24:39.577Z,61.90
2023-03-13T11:27:16.476Z,62.00
2023-03-13T11:29:55.169Z,61.30
2023-03-13T11:32:32.364Z,61.40
2023-03-13T11:35:08.329Z,61.80
2023-03-13T11:37:40.878Z,62.40
2023-03-13T11:40:20.563Z,63.60
2023-03-13T11:43:06.560Z,64.80
2023-03-13T11:45:56.045Z,65.40
2023-03-13T11:48:42.192Z,65.90
2023-03-13T11:51:20.948Z,64.70
2023-03-13T11:54:13.092Z,64.40
2023-03-13T11:56:45.543Z,63.10
2023-03-13T11:59:29.642Z,62.20
2023-03-13T12:02:02.039Z,62.10
2023-03-13T12:04:36.829Z,61.40
2023-03-13T12:07:09.767Z,61.00
2023-03-13T12:09:44.037Z,60.30
2023-03-13T12:12:20.575Z,59.80
2023-03-13T12:14:53.534Z,59.40
2023-03-13T12:17:33.153Z,58.80
2023-03-13T12:20:09.083Z,58.40
2023-03-13T12:22:46.482Z,58.60
2023-03-13T12:25:19.496Z,58.80
2023-03-13T12:27:52.929Z,59.10
2023-03-13T12:30:27.447Z,59.10
2023-03-13T12:33:04.512Z,59.70
2023-03-13T12:35:33.787Z,60.00
2023-03-13T12:38:07.792Z,60.60
2023-03-13T12:40:42.395Z,61.20
2023-03-13T12:43:15.583Z,62.30
2023-03-13T12:45:56.280Z,62.90
2023-03-13T12:49:01.520Z,62.70
2023-03-13T12:51:46.894Z,63.90
2023-03-13T12:54:36.080Z,65.00
2023-03-13T12:57:20.343Z,66.20
2023-03-13T12:59:51.405Z,66.60
2023-03-13T13:02:22.876Z,67.00
2023-03-13T13:04:53.584Z,67.10
2023-03-13T13:07:26.831Z,67.40
2023-03-13T13:10:17.504Z,68.40
2023-03-13T13:12:46.386Z,69.60
2023-03-13T13:15:23.565Z,69.50
2023-03-13T13:18:11.718Z,70.40
2023-03-13T13:20:50.155Z,70.70
2023-03-13T13:23:37.612Z,70.50
2023-03-13T13:26:48.480Z,71.20
2023-03-13T13:29:59.369Z,71.10
2023-03-13T13:32:46.952Z,71.60
2023-03-13T13:35:27.047Z,72.20
2023-03-13T13:38:22.384Z,71.50
2023-03-13T13:41:01.322Z,71.80
2023-03-13T13:43:33.433Z,72.40
2023-03-13T13:46:06.090Z,72.90
2023-03-13T13:48:37.985Z,73.50
2023-03-13T13:51:25.191Z,74.10
2023-03-13T13:53:56.086Z,74.50
2023-03-13T13:56:43.398Z,75.10
2023-03-13T13:59:42.103Z,75.50
2023-03-13T14:02:23.588Z,76.00
2023-03-13T14:05:00.440Z,76.70
2023-03-13T14:07:33.530Z,77.30
2023-03-13T14:10:07.342Z,76.60
2023-03-13T14:12:36.721Z,76.80
2023-03-13T14:15:10.317Z,77.00
2023-03-13T14:17:43.493Z,77.40
2023-03-13T14:20:32.157Z,77.70
2023-03-13T14:23:02.880Z,78.30
2023-03-13T14:25:43.595Z,80.80
2023-03-13T14:28:20.552Z,81.30
2023-03-13T14:30:51.756Z,81.90
2023-03-13T14:33:20.620Z,82.70
2023-03-13T14:35:50.425Z,84.00
2023-03-13T14:38:21.191Z,84.40
2023-03-13T14:40:50.381Z,84.50
2023-03-13T14:43:33.381Z,84.20
2023-03-13T14:46:02.130Z,84.60
2023-03-13T14:48:32.824Z,84.30
2023-03-13T14:51:15.522Z,84.50
2023-03-13T14:53:56.572Z,84.70
2023-03-13T14:56:34.000Z,84.00
2023-03-13T14:59:10.265Z,84.20
2023-03-13T15:01:38.258Z,84.10
2023-03-13T15:04:06.406Z,84.50
2023-03-13T15:06:35.832Z,84.40
2023-03-13T15:09:20.032Z,84.30
2023-03-13T15:11:57.038Z,84.00
2023-03-13T15:14:38.779Z,83.80
2023-03-13T15:17:14.921Z,83.90
2023-03-13T15:19:43.291Z,84.00
2023-03-13T15:22:16.159Z,84.00
2023-03-13T15:24:56.179Z,84.20
2023-03-13T15:27:33.176Z,84.50
2023-03-13T15:30:01.198Z,84.50
2023-03-13T15:32:31.282Z,84.40
2023-03-13T15:35:01.815Z,84.40
2023-03-13T15:37:32.240Z,85.00
2023-03-13T15:40:00.432Z,84.80
2023-03-13T15:42:28.514Z,84.80
2023-03-13T15:44:56.524Z,84.50
2023-03-13T15:47:24.581Z,84.70
2023-03-13T15:49:52.579Z,85.00
2023-03-13T15:52:23.538Z,85.00
2023-03-13T15:54:52.989Z,85.20
2023-03-13T15:57:24.222Z,85.20
2023-03-13T15:59:52.440Z,85.20
2023-03-13T16:02:22.478Z,85.10
2023-03-13T16:04:51.245Z,85.50
2023-03-13T16:07:20.967Z,85.40
2023-03-13T16:09:49.682Z,85.40
2023-03-13T16:12:19.068Z,85.60
2023-03-13T16:14:47.086Z,85.70
2023-03-13T16:17:18.072Z,85.70
2023-03-13T16:19:47.065Z,85.80
2023-03-13T16:22:15.491Z,86.00
2023-03-13T16:24:43.530Z,86.00
2023-03-13T16:27:16.949Z,86.30
2023-03-13T16:29:47.157Z,86.30
2023-03-13T16:32:17.229Z,86.30
2023-03-13T16:34:45.384Z,86.40
2023-03-13T16:37:14.605Z,86.60
2023-03-13T16:39:44.109Z,86.70
2023-03-13T16:42:12.661Z,87.00
2023-03-13T16:44:40.689Z,86.80
2023-03-13T16:47:19.315Z,87.10
2023-03-13T16:49:47.792Z,87.30
2023-03-13T16:52:16.525Z,87.40
2023-03-13T16:54:45.054Z,87.40
2023-03-13T16:57:15.225Z,87.70
2023-03-13T16:59:43.245Z,87.60
2023-03-13T17:02:17.811Z,87.60
2023-03-13T17:04:46.240Z,87.70
2023-03-13T17:07:20.560Z,87.50
2023-03-13T17:09:48.807Z,87.60
2023-03-13T17:12:17.214Z,87.50
2023-03-13T17:14:45.673Z,87.70
2023-03-13T17:17:17.450Z,87.70
2023-03-13T17:19:45.799Z,87.50
2023-03-13T17:22:14.632Z,87.60
2023-03-13T17:24:43.455Z,87.60
2023-03-13T17:27:13.790Z,87.60
2023-03-13T17:29:41.986Z,87.70
2023-03-13T17:32:11.791Z,87.60
2023-03-13T17:34:41.557Z,87.80
2023-03-13T17:37:15.977Z,87.40
2023-03-13T17:39:44.589Z,87.30
2023-03-13T17:42:12.837Z,87.30
2023-03-13T17:44:41.260Z,87.30
2023-03-13T17:47:14.537Z,87.20
2023-03-13T17:49:44.594Z,86.90
2023-03-13T17:52:16.874Z,87.00
2023-03-13T17:54:45.929Z,87.00
2023-03-13T17:57:17.117Z,86.90
2023-03-13T17:59:45.762Z,86.90
2023-03-13T18:02:15.456Z,86.60
2023-03-13T18:04:45.644Z,86.40
2023-03-13T18:07:22.309Z,86.10
2023-03-13T18:09:50.297Z,86.30
2023-03-13T18:12:18.682Z,86.00
2023-03-13T18:14:47.135Z,86.00
2023-03-13T18:17:17.678Z,85.90
2023-03-13T18:19:47.071Z,85.30
2023-03-13T18:22:17.649Z,85.50
2023-03-13T18:24:46.100Z,85.20
2023-03-13T18:27:15.962Z,84.50
2023-03-13T18:29:44.934Z,84.50
2023-03-13T18:32:15.424Z,84.50
2023-03-13T18:34:43.775Z,84.30
2023-03-13T18:37:20.943Z,84.30
2023-03-13T18:39:49.986Z,84.20
2023-03-13T18:42:18.153Z,84.30
2023-03-13T18:44:46.130Z,84.20
2023-03-13T18:47:16.231Z,84.20
2023-03-13T18:49:44.386Z,84.10
2023-03-13T18:52:13.030Z,84.00
2023-03-13T18:54:42.496Z,83.90
2023-03-13T18:57:14.487Z,83.00
2023-03-13T18:59:43.059Z,83.20
2023-03-13T19:02:14.787Z,82.90
2023-03-13T19:04:43.049Z,82.20
2023-03-13T19:07:21.093Z,81.00
2023-03-13T19:09:50.446Z,80.20
2023-03-13T19:12:18.498Z,80.10
2023-03-13T19:14:46.491Z,79.30
2023-03-13T19:17:19.818Z,79.00
2023-03-13T19:19:47.847Z,78.60
2023-03-13T19:22:16.045Z,78.30
2023-03-13T19:24:44.192Z,78.00
2023-03-13T19:27:16.862Z,77.60
2023-03-13T19:29:45.732Z,77.20
2023-03-13T19:32:15.194Z,77.00
2023-03-13T19:34:43.150Z,77.00
2023-03-13T19:37:11.791Z,76.90
2023-03-13T19:39:39.792Z,76.40
2023-03-13T19:42:08.313Z,76.00
2023-03-13T19:44:38.390Z,76.20
2023-03-13T19:47:06.497Z,75.60
2023-03-13T19:49:34.741Z,75.40
2023-03-13T19:52:02.745Z,74.80
2023-03-13T19:54:30.689Z,74.60
2023-03-13T19:56:58.778Z,74.60
2023-03-13T19:59:27.728Z,74.20
2023-03-13T20:01:57.270Z,74.10
2023-03-13T20:04:25.264Z,73.90
2023-03-13T20:06:53.262Z,73.70
2023-03-13T20:09:21.597Z,73.40
2023-03-13T20:11:49.736Z,73.20
2023-03-13T20:14:18.095Z,73.10
2023-03-13T20:16:48.885Z,73.00
2023-03-13T20:19:18.407Z,72.80
2023-03-13T20:21:46.697Z,72.80
2023-03-13T20:24:14.671Z,72.40
2023-03-13T20:26:42.872Z,72.20
2023-03-13T20:29:10.840Z,72.00
2023-03-13T20:31:38.804Z,71.40
2023-03-13T20:34:06.817Z,71.10
2023-03-13T20:36:36.128Z,71.20
2023-03-13T20:39:05.523Z,70.70
2023-03-13T20:41:33.669Z,70.70
2023-03-13T20:44:01.652Z,71.20
2023-03-13T20:46:29.703Z,70.00
2023-03-13T20:48:59.007Z,70.00
2023-03-13T20:51:27.798Z,70.20
2023-03-13T20:53:57.177Z,69.90
2023-03-13T20:56:25.305Z,70.00
2023-03-13T20:58:53.522Z,69.70
2023-03-13T21:01:22.535Z,69.90
2023-03-13T21:03:50.581Z,69.20
2023-03-13T21:06:19.610Z,69.20
2023-03-13T21:08:47.917Z,69.50
2023-03-13T21:11:19.235Z,69.20
2023-03-13T21:13:47.760Z,69.20
2023-03-13T21:16:16.706Z,68.80
2023-03-13T21:18:44.711Z,68.80
2023-03-13T21:21:17.072Z,68.70
2023-03-13T21:23:45.261Z,68.80
2023-03-13T21:26:13.603Z,69.00
2023-03-13T21:28:43.222Z,69.20
2023-03-13T21:31:13.141Z,69.00
2023-03-13T21:33:42.127Z,68.90
2023-03-13T21:36:11.189Z,69.00
2023-03-13T21:38:39.605Z,69.00
2023-03-13T21:41:12.198Z,69.30
2023-03-13T21:43:42.519Z,69.50
2023-03-13T21:46:11.273Z,69.40
2023-03-13T21:48:39.382Z,69.30
2023-03-13T21:51:07.991Z,69.70
2023-03-13T21:53:36.543Z,69.70
2023-03-13T21:56:05.565Z,70.00
2023-03-13T21:58:33.555Z,70.10
2023-03-13T22:01:03.114Z,70.20
2023-03-13T22:03:31.820Z,70.50
2023-03-13T22:05:59.914Z,70.80
2023-03-13T22:08:27.849Z,71.00
2023-03-13T22:10:55.904Z,71.10
2023-03-13T22:13:23.902Z,71.00
2023-03-13T22:15:52.780Z,71.30
2023-03-13T22:18:22.128Z,71.40
2023-03-13T22:20:50.106Z,71.60
2023-03-13T22:23:18.146Z,71.70
2023-03-13T22:25:48.028Z,71.80
2023-03-13T22:28:16.038Z,72.20
2023-03-13T22:30:45.824Z,72.10
2023-03-13T22:33:14.027Z,72.20
2023-03-13T22:35:45.170Z,72.40
2023-03-13T22:38:13.170Z,72.40
2023-03-13T22:40:41.135Z,72.40
2023-03-13T22:43:09.251Z,72.40
2023-03-13T22:45:37.554Z,72.50
2023-03-13T22:48:06.657Z,72.50
2023-03-13T22:50:35.085Z,72.40
2023-03-13T22:53:04.657Z,72.60
2023-03-13T22:55:33.634Z,72.60
2023-03-13T22:58:01.907Z,72.50
2023-03-13T23:00:29.942Z,72.60
2023-03-13T23:02:57.912Z,72.80
2023-03-13T23:05:25.873Z,72.70
2023-03-13T23:07:53.848Z,73.10
2023-03-13T23:10:23.229Z,73.70
2023-03-13T23:12:51.209Z,72.90
2023-03-13T23:15:19.239Z,73.10
2023-03-13T23:17:47.178Z,73.20
2023-03-13T23:20:16.148Z,73.30
2023-03-13T23:22:45.668Z,73.30
2023-03-13T23:25:14.932Z,73.60
2023-03-13T23:27:44.443Z,73.50
2023-03-13T23:30:14.661Z,73.70
2023-03-13T23:32:45.257Z,73.80
2023-03-13T23:35:16.868Z,74.80
2023-03-13T23:37:49.159Z,74.30
2023-03-13T23:40:17.540Z,74.10
2023-03-13T23:42:47.681Z,74.50
2023-03-13T23:45:15.752Z,74.40
2023-03-13T23:47:46.064Z,74.50
2023-03-13T23:50:15.292Z,74.40
2023-03-13T23:52:43.595Z,74.40
2023-03-13T23:55:12.043Z,75.50
2023-03-13T23:57:40.040Z,74.70
